createdAt,value
2022-12-29T00:00:12.670Z,65.25
2022-12-29T00:01:12.879Z,65.14
2022-12-29T00:02:13.072Z,64.94
2022-12-29T00:03:13.337Z,65.14
2022-12-29T00:04:15.183Z,65.14
2022-12-29T00:05:13.545Z,65.04
2022-12-29T00:06:13.699Z,65.14
2022-12-29T00:07:13.866Z,65.04
2022-12-29T00:08:14.019Z,65.04
2022-12-29T00:09:14.189Z,65.04
2022-12-29T00:10:14.349Z,65.14
2022-12-29T00:11:14.517Z,65.25
2022-12-29T00:12:14.682Z,65.04
2022-12-29T00:13:14.839Z,64.94
2022-12-29T00:14:14.998Z,64.94
2022-12-29T00:15:15.178Z,64.94
2022-12-29T00:16:15.398Z,64.32
2022-12-29T00:17:15.517Z,64.73
2022-12-29T00:18:15.678Z,64.73
2022-12-29T00:19:15.842Z,64.73
2022-12-29T00:20:16.017Z,64.84
2022-12-29T00:21:16.178Z,64.73
2022-12-29T00:22:16.329Z,64.84
2022-12-29T00:23:16.517Z,64.73
2022-12-29T00:24:16.705Z,64.84
2022-12-29T00:25:16.894Z,64.84
2022-12-29T00:26:17.086Z,65.04
2022-12-29T00:27:17.247Z,64.84
2022-12-29T00:28:17.433Z,64.84
2022-12-29T00:29:17.625Z,64.84
2022-12-29T00:30:18.015Z,64.63
2022-12-29T00:31:18.044Z,64.43
2022-12-29T00:32:18.298Z,64.73
2022-12-29T00:33:18.347Z,64.94
2022-12-29T00:34:18.494Z,64.73
2022-12-29T00:35:18.658Z,64.73
2022-12-29T00:36:18.858Z,64.94
2022-12-29T00:37:19.011Z,64.94
2022-12-29T00:38:19.159Z,64.73
2022-12-29T00:39:19.335Z,64.53
2022-12-29T00:40:19.490Z,64.73
2022-12-29T00:41:19.699Z,64.63
2022-12-29T00:42:19.859Z,64.53
2022-12-29T00:43:20.025Z,65.04
2022-12-29T00:44:20.181Z,64.94
2022-12-29T00:45:20.346Z,64.94
2022-12-29T00:46:20.580Z,65.14
2022-12-29T00:47:20.697Z,65.04
2022-12-29T00:48:20.864Z,65.14
2022-12-29T00:49:21.024Z,65.04
2022-12-29T00:50:21.182Z,65.14
2022-12-29T00:51:21.362Z,65.04
2022-12-29T00:52:21.621Z,65.04
2022-12-29T00:53:21.706Z,64.94
2022-12-29T00:54:21.882Z,65.14
2022-12-29T00:55:22.028Z,65.04
2022-12-29T00:56:22.197Z,65.14
2022-12-29T00:57:22.378Z,65.34
2022-12-29T00:58:22.518Z,64.94
2022-12-29T00:59:22.707Z,64.94
2022-12-29T01:00:22.867Z,65.04
2022-12-29T01:01:23.120Z,65.04
2022-12-29T01:02:23.275Z,64.94
2022-12-29T01:03:23.431Z,65.04
2022-12-29T01:04:23.547Z,65.04
2022-12-29T01:05:23.747Z,65.04
2022-12-29T01:06:23.926Z,64.73
2022-12-29T01:07:24.093Z,64.50
2022-12-29T01:08:24.247Z,64.43
2022-12-29T01:09:24.426Z,64.43
2022-12-29T01:10:24.580Z,64.40
2022-12-29T01:11:24.767Z,64.50
2022-12-29T01:12:24.927Z,64.40
2022-12-29T01:13:25.094Z,64.20
2022-12-29T01:14:25.248Z,64.29
2022-12-29T01:15:25.426Z,64.40
2022-12-29T01:16:25.639Z,64.29
2022-12-29T01:17:25.797Z,63.79
2022-12-29T01:18:25.957Z,64.09
2022-12-29T01:19:26.116Z,63.89
2022-12-29T01:20:26.274Z,63.99
2022-12-29T01:21:26.454Z,64.09
2022-12-29T01:22:26.627Z,63.99
2022-12-29T01:23:26.783Z,64.09
2022-12-29T01:24:27.002Z,64.20
2022-12-29T01:25:27.131Z,64.50
2022-12-29T01:26:27.284Z,64.60
2022-12-29T01:27:27.446Z,64.50
2022-12-29T01:28:27.605Z,64.60
2022-12-29T01:29:27.767Z,64.50
2022-12-29T01:30:27.946Z,64.50
2022-12-29T01:31:28.153Z,64.90
2022-12-29T01:32:28.293Z,64.70
2022-12-29T01:33:28.486Z,64.70
2022-12-29T01:34:28.684Z,65.01
2022-12-29T01:35:28.852Z,65.11
2022-12-29T01:36:29.005Z,64.90
2022-12-29T01:37:29.214Z,65.01
2022-12-29T01:38:29.372Z,65.31
2022-12-29T01:39:29.525Z,65.22
2022-12-29T01:40:29.699Z,65.31
2022-12-29T01:41:29.893Z,65.52
2022-12-29T01:42:30.045Z,65.72
2022-12-29T01:43:30.205Z,65.42
2022-12-29T01:44:30.367Z,65.22
2022-12-29T01:45:30.565Z,65.22
2022-12-29T01:46:30.724Z,65.22
2022-12-29T01:47:30.876Z,65.22
2022-12-29T01:48:31.027Z,65.01
2022-12-29T01:49:31.195Z,65.11
2022-12-29T01:50:31.373Z,65.01
2022-12-29T01:51:31.555Z,64.81
2022-12-29T01:52:31.714Z,64.70
2022-12-29T01:53:31.873Z,64.60
2022-12-29T01:54:32.039Z,64.70
2022-12-29T01:55:32.209Z,64.60
2022-12-29T01:56:32.375Z,64.50
2022-12-29T01:57:32.562Z,64.50
2022-12-29T01:58:32.820Z,64.60
2022-12-29T01:59:32.902Z,64.70
2022-12-29T02:00:33.066Z,64.29
2022-12-29T02:01:33.362Z,63.99
2022-12-29T02:02:33.728Z,64.40
2022-12-29T02:03:33.670Z,64.09
2022-12-29T02:04:33.756Z,63.79
2022-12-29T02:05:33.943Z,63.79
2022-12-29T02:06:34.104Z,63.89
2022-12-29T02:07:34.274Z,63.48
2022-12-29T02:08:34.454Z,63.48
2022-12-29T02:09:34.615Z,63.79
2022-12-29T02:10:34.786Z,63.58
2022-12-29T02:11:34.975Z,63.45
2022-12-29T02:12:35.115Z,63.24
2022-12-29T02:13:35.283Z,62.94
2022-12-29T02:14:35.443Z,62.94
2022-12-29T02:15:35.659Z,62.74
2022-12-29T02:16:35.868Z,62.63
2022-12-29T02:17:35.994Z,62.63
2022-12-29T02:18:36.155Z,62.54
2022-12-29T02:19:36.345Z,62.54
2022-12-29T02:20:36.525Z,62.54
2022-12-29T02:21:36.725Z,62.54
2022-12-29T02:22:36.908Z,62.33
2022-12-29T02:23:37.034Z,62.23
2022-12-29T02:24:37.184Z,61.82
2022-12-29T02:25:37.384Z,61.52
2022-12-29T02:26:37.567Z,61.93
2022-12-29T02:27:37.734Z,61.72
2022-12-29T02:28:37.902Z,61.93
2022-12-29T02:29:38.052Z,61.72
2022-12-29T02:30:38.211Z,61.61
2022-12-29T02:31:38.404Z,61.90
2022-12-29T02:32:38.529Z,61.49
2022-12-29T02:33:38.695Z,61.59
2022-12-29T02:34:38.851Z,61.59
2022-12-29T02:35:39.044Z,61.38
2022-12-29T02:36:39.222Z,61.08
2022-12-29T02:37:39.404Z,61.29
2022-12-29T02:38:39.555Z,61.29
2022-12-29T02:39:39.728Z,61.29
2022-12-29T02:40:39.884Z,61.38
2022-12-29T02:41:40.088Z,61.08
2022-12-29T02:42:40.251Z,60.98
2022-12-29T02:43:40.415Z,60.88
2022-12-29T02:44:40.583Z,60.98
2022-12-29T02:45:40.767Z,61.08
2022-12-29T02:46:40.922Z,60.98
2022-12-29T02:47:41.104Z,60.88
2022-12-29T02:48:41.261Z,60.77
2022-12-29T02:49:41.426Z,60.98
2022-12-29T02:50:41.583Z,60.88
2022-12-29T02:51:41.777Z,60.57
2022-12-29T02:52:41.929Z,60.47
2022-12-29T02:53:42.103Z,60.57
2022-12-29T02:54:42.255Z,60.57
2022-12-29T02:55:42.425Z,60.68
2022-12-29T02:56:42.582Z,60.77
2022-12-29T02:57:42.764Z,60.57
2022-12-29T02:58:42.923Z,60.68
2022-12-29T02:59:43.091Z,60.68
2022-12-29T03:00:43.304Z,60.37
2022-12-29T03:01:43.518Z,60.47
2022-12-29T03:02:43.692Z,60.77
2022-12-29T03:03:43.761Z,60.75
2022-12-29T03:04:43.928Z,60.75
2022-12-29T03:05:44.083Z,60.34
2022-12-29T03:06:44.241Z,60.47
2022-12-29T03:07:44.421Z,60.54
2022-12-29T03:08:44.571Z,60.54
2022-12-29T03:09:44.733Z,60.54
2022-12-29T03:10:44.891Z,60.54
2022-12-29T03:11:45.059Z,60.54
2022-12-29T03:12:45.242Z,60.54
2022-12-29T03:13:45.402Z,60.54
2022-12-29T03:14:45.561Z,60.44
2022-12-29T03:15:45.771Z,60.44
2022-12-29T03:16:46.033Z,60.24
2022-12-29T03:17:46.132Z,60.64
2022-12-29T03:18:46.285Z,60.44
2022-12-29T03:19:46.443Z,60.34
2022-12-29T03:20:46.615Z,60.34
2022-12-29T03:21:46.784Z,60.34
2022-12-29T03:22:46.938Z,60.34
2022-12-29T03:23:47.100Z,60.24
2022-12-29T03:24:47.252Z,60.34
2022-12-29T03:25:47.476Z,60.34
2022-12-29T03:26:47.631Z,60.24
2022-12-29T03:27:47.802Z,60.52
2022-12-29T03:28:47.951Z,60.41
2022-12-29T03:29:48.120Z,60.21
2022-12-29T03:30:48.348Z,60.41
2022-12-29T03:31:48.469Z,60.61
2022-12-29T03:32:48.638Z,60.41
2022-12-29T03:33:48.809Z,60.21
2022-12-29T03:34:48.959Z,60.11
2022-12-29T03:35:49.151Z,60.21
2022-12-29T03:36:49.317Z,60.41
2022-12-29T03:37:49.489Z,60.31
2022-12-29T03:38:49.651Z,60.21
2022-12-29T03:39:49.812Z,60.41
2022-12-29T03:40:49.987Z,60.31
2022-12-29T03:41:50.142Z,60.41
2022-12-29T03:42:50.310Z,60.11
2022-12-29T03:43:50.478Z,60.21
2022-12-29T03:44:50.630Z,60.31
2022-12-29T03:45:50.912Z,60.41
2022-12-29T03:46:50.999Z,60.41
2022-12-29T03:47:51.209Z,60.31
2022-12-29T03:48:51.363Z,60.31
2022-12-29T03:49:51.529Z,60.31
2022-12-29T03:50:51.699Z,60.61
2022-12-29T03:51:52.147Z,60.41
2022-12-29T03:52:52.070Z,60.21
2022-12-29T03:53:52.236Z,60.31
2022-12-29T03:54:52.419Z,60.31
2022-12-29T03:55:52.575Z,60.52
2022-12-29T03:56:52.724Z,60.31
2022-12-29T03:57:52.899Z,60.61
2022-12-29T03:58:53.066Z,60.11
2022-12-29T03:59:53.230Z,60.18
2022-12-29T04:00:53.384Z,60.38
2022-12-29T04:01:53.635Z,60.38
2022-12-29T04:02:53.888Z,60.38
2022-12-29T04:03:53.924Z,60.28
2022-12-29T04:04:54.076Z,60.28
2022-12-29T04:05:54.239Z,60.18
2022-12-29T04:06:54.398Z,60.18
2022-12-29T04:07:54.577Z,60.28
2022-12-29T04:08:54.732Z,60.18
2022-12-29T04:09:54.880Z,60.38
2022-12-29T04:10:55.050Z,60.38
2022-12-29T04:11:55.220Z,60.28
2022-12-29T04:12:55.393Z,60.28
2022-12-29T04:13:55.541Z,60.18
2022-12-29T04:14:55.728Z,59.98
2022-12-29T04:15:55.924Z,60.38
2022-12-29T04:16:56.077Z,60.18
2022-12-29T04:17:56.250Z,60.18
2022-12-29T04:18:56.410Z,60.18
2022-12-29T04:19:56.569Z,60.08
2022-12-29T04:20:56.729Z,60.18
2022-12-29T04:21:56.894Z,60.18
2022-12-29T04:22:57.067Z,60.18
2022-12-29T04:23:57.237Z,60.28
2022-12-29T04:24:57.393Z,60.28
2022-12-29T04:25:57.556Z,60.28
2022-12-29T04:26:57.720Z,60.38
2022-12-29T04:27:57.889Z,60.08
2022-12-29T04:28:58.048Z,60.18
2022-12-29T04:29:58.209Z,60.18
2022-12-29T04:30:58.868Z,60.38
2022-12-29T04:31:58.581Z,60.28
2022-12-29T04:32:58.823Z,60.38
2022-12-29T04:33:58.937Z,60.28
2022-12-29T04:34:59.102Z,60.28
2022-12-29T04:35:59.260Z,60.28
2022-12-29T04:36:59.419Z,60.38
2022-12-29T04:37:59.589Z,60.49
2022-12-29T04:38:59.757Z,60.59
2022-12-29T04:39:59.919Z,60.38
2022-12-29T04:41:00.121Z,60.79
2022-12-29T04:42:00.259Z,60.59
2022-12-29T04:43:00.442Z,60.38
2022-12-29T04:44:00.600Z,60.59
2022-12-29T04:45:00.786Z,60.59
2022-12-29T04:46:01.006Z,60.59
2022-12-29T04:47:01.112Z,60.49
2022-12-29T04:48:01.280Z,60.69
2022-12-29T04:49:01.430Z,60.59
2022-12-29T04:50:01.635Z,60.79
2022-12-29T04:51:01.766Z,60.79
2022-12-29T04:52:01.915Z,60.79
2022-12-29T04:53:02.106Z,60.89
2022-12-29T04:54:02.268Z,60.79
2022-12-29T04:55:02.439Z,60.89
2022-12-29T04:56:02.599Z,60.79
2022-12-29T04:57:02.754Z,60.79
2022-12-29T04:58:02.948Z,60.79
2022-12-29T04:59:03.099Z,60.79
2022-12-29T05:00:03.253Z,60.79
2022-12-29T05:01:03.412Z,60.79
2022-12-29T05:02:03.623Z,60.79
2022-12-29T05:03:03.983Z,60.79
2022-12-29T05:04:03.989Z,60.79
2022-12-29T05:05:04.133Z,60.89
2022-12-29T05:06:04.280Z,60.89
2022-12-29T05:07:04.439Z,60.79
2022-12-29T05:08:04.615Z,61.10
2022-12-29T05:09:04.778Z,60.89
2022-12-29T05:10:04.957Z,60.89
2022-12-29T05:11:05.127Z,60.89
2022-12-29T05:12:05.280Z,60.99
2022-12-29T05:13:05.441Z,60.89
2022-12-29T05:14:05.602Z,60.99
2022-12-29T05:15:05.797Z,61.17
2022-12-29T05:16:06.007Z,60.86
2022-12-29T05:17:06.154Z,60.97
2022-12-29T05:18:06.302Z,61.17
2022-12-29T05:19:06.470Z,60.86
2022-12-29T05:20:06.639Z,60.86
2022-12-29T05:21:06.808Z,60.97
2022-12-29T05:22:06.977Z,60.97
2022-12-29T05:23:07.169Z,60.97
2022-12-29T05:24:07.331Z,60.97
2022-12-29T05:25:07.550Z,61.17
2022-12-29T05:26:07.820Z,60.97
2022-12-29T05:27:07.880Z,61.07
2022-12-29T05:28:08.050Z,61.07
2022-12-29T05:29:08.231Z,61.07
2022-12-29T05:30:08.391Z,60.97
2022-12-29T05:31:08.614Z,60.86
2022-12-29T05:32:08.745Z,60.66
2022-12-29T05:33:08.931Z,60.86
2022-12-29T05:34:09.098Z,60.86
2022-12-29T05:35:09.294Z,60.86
2022-12-29T05:36:09.477Z,60.74
2022-12-29T05:37:09.621Z,60.94
2022-12-29T05:38:09.798Z,61.04
2022-12-29T05:39:09.958Z,60.83
2022-12-29T05:40:10.124Z,60.83
2022-12-29T05:41:10.280Z,60.74
2022-12-29T05:42:10.442Z,60.63
2022-12-29T05:43:10.610Z,60.63
2022-12-29T05:44:10.770Z,60.74
2022-12-29T05:45:10.930Z,60.63
2022-12-29T05:46:11.160Z,60.63
2022-12-29T05:47:11.315Z,60.63
2022-12-29T05:48:11.431Z,60.53
2022-12-29T05:49:11.597Z,60.74
2022-12-29T05:50:11.790Z,60.83
2022-12-29T05:51:11.963Z,60.63
2022-12-29T05:52:12.120Z,60.74
2022-12-29T05:53:12.333Z,60.53
2022-12-29T05:54:12.484Z,60.63
2022-12-29T05:55:12.668Z,60.63
2022-12-29T05:56:12.863Z,60.63
2022-12-29T05:57:13.039Z,60.74
2022-12-29T05:58:13.218Z,60.63
2022-12-29T05:59:13.392Z,60.63
2022-12-29T06:00:13.567Z,60.74
2022-12-29T06:01:13.731Z,60.63
2022-12-29T06:02:14.177Z,60.74
2022-12-29T06:03:14.238Z,60.63
2022-12-29T06:04:14.267Z,60.91
2022-12-29T06:05:14.449Z,60.50
2022-12-29T06:06:14.626Z,60.50
2022-12-29T06:07:14.789Z,60.50
2022-12-29T06:08:14.982Z,60.50
2022-12-29T06:09:15.121Z,60.60
2022-12-29T06:10:15.274Z,60.50
2022-12-29T06:11:15.470Z,60.40
2022-12-29T06:12:15.619Z,60.50
2022-12-29T06:13:15.825Z,60.60
2022-12-29T06:14:15.988Z,60.71
2022-12-29T06:15:16.160Z,60.60
2022-12-29T06:16:16.321Z,60.50
2022-12-29T06:17:16.496Z,60.50
2022-12-29T06:18:20.050Z,60.40
2022-12-29T06:19:16.852Z,60.50
2022-12-29T06:20:17.062Z,60.60
2022-12-29T06:21:17.217Z,60.50
2022-12-29T06:22:17.417Z,60.71
2022-12-29T06:23:17.598Z,60.71
2022-12-29T06:24:17.747Z,60.50
2022-12-29T06:25:17.922Z,60.50
2022-12-29T06:26:18.079Z,60.60
2022-12-29T06:27:18.245Z,60.60
2022-12-29T06:28:18.438Z,60.71
2022-12-29T06:29:18.579Z,60.71
2022-12-29T06:30:18.739Z,60.60
2022-12-29T06:31:18.920Z,60.60
2022-12-29T06:32:19.084Z,60.60
2022-12-29T06:33:19.288Z,60.71
2022-12-29T06:34:19.438Z,60.60
2022-12-29T06:35:19.601Z,60.60
2022-12-29T06:36:19.749Z,60.81
2022-12-29T06:37:19.929Z,60.71
2022-12-29T06:38:20.129Z,60.50
2022-12-29T06:39:20.289Z,60.71
2022-12-29T06:40:20.453Z,60.81
2022-12-29T06:41:20.624Z,60.81
2022-12-29T06:42:20.779Z,61.01
2022-12-29T06:43:20.962Z,61.11
2022-12-29T06:44:21.126Z,61.01
2022-12-29T06:45:21.282Z,61.14
2022-12-29T06:46:21.481Z,61.24
2022-12-29T06:47:21.638Z,61.24
2022-12-29T06:48:21.810Z,61.24
2022-12-29T06:49:21.961Z,61.24
2022-12-29T06:50:22.156Z,61.34
2022-12-29T06:51:22.328Z,61.34
2022-12-29T06:52:22.472Z,61.44
2022-12-29T06:53:22.679Z,61.55
2022-12-29T06:54:22.839Z,61.55
2022-12-29T06:55:23.015Z,61.55
2022-12-29T06:56:23.176Z,61.65
2022-12-29T06:57:23.351Z,61.75
2022-12-29T06:58:23.524Z,61.75
2022-12-29T06:59:23.714Z,61.85
2022-12-29T07:00:23.899Z,61.88
2022-12-29T07:01:24.171Z,61.98
2022-12-29T07:02:24.307Z,62.05
2022-12-29T07:03:24.522Z,61.95
2022-12-29T07:04:24.588Z,61.95
2022-12-29T07:05:24.772Z,61.98
2022-12-29T07:06:24.943Z,62.18
2022-12-29T07:07:25.121Z,62.18
2022-12-29T07:08:25.319Z,62.39
2022-12-29T07:09:25.504Z,62.29
2022-12-29T07:10:25.668Z,62.39
2022-12-29T07:11:25.869Z,62.49
2022-12-29T07:12:26.040Z,62.49
2022-12-29T07:13:26.254Z,62.49
2022-12-29T07:14:26.409Z,62.59
2022-12-29T07:15:26.616Z,62.59
2022-12-29T07:16:26.853Z,62.59
2022-12-29T07:17:26.927Z,62.70
2022-12-29T07:18:27.102Z,62.59
2022-12-29T07:19:27.293Z,62.70
2022-12-29T07:20:27.584Z,62.79
2022-12-29T07:21:27.669Z,62.79
2022-12-29T07:22:27.848Z,62.79
2022-12-29T07:23:28.041Z,62.79
2022-12-29T07:24:28.198Z,62.79
2022-12-29T07:25:28.380Z,62.90
2022-12-29T07:26:34.425Z,62.90
2022-12-29T07:27:29.688Z,62.93
2022-12-29T07:28:28.878Z,63.02
2022-12-29T07:29:29.068Z,63.02
2022-12-29T07:30:29.266Z,63.10
2022-12-29T07:31:29.457Z,63.00
2022-12-29T07:32:29.591Z,63.00
2022-12-29T07:33:29.797Z,63.00
2022-12-29T07:34:29.930Z,63.00
2022-12-29T07:35:30.108Z,62.90
2022-12-29T07:36:34.304Z,63.00
2022-12-29T07:37:30.488Z,62.90
2022-12-29T07:38:30.649Z,63.00
2022-12-29T07:39:30.828Z,63.10
2022-12-29T07:40:30.988Z,63.10
2022-12-29T07:41:31.141Z,63.10
2022-12-29T07:42:31.329Z,63.10
2022-12-29T07:43:31.536Z,63.00
2022-12-29T07:44:31.703Z,62.79
2022-12-29T07:45:31.898Z,63.00
2022-12-29T07:46:54.580Z,62.76
2022-12-29T07:47:33.259Z,62.66
2022-12-29T07:48:32.409Z,62.56
2022-12-29T07:49:32.593Z,62.46
2022-12-29T07:50:32.767Z,62.46
2022-12-29T07:51:32.942Z,62.36
2022-12-29T07:52:33.099Z,62.46
2022-12-29T07:53:33.305Z,62.46
2022-12-29T07:54:33.469Z,62.36
2022-12-29T07:55:33.672Z,62.26
2022-12-29T07:56:33.828Z,62.36
2022-12-29T07:57:34.020Z,62.46
2022-12-29T07:58:34.201Z,62.26
2022-12-29T07:59:34.351Z,62.16
2022-12-29T08:00:34.523Z,62.16
2022-12-29T08:01:34.829Z,62.16
2022-12-29T08:02:34.890Z,62.05
2022-12-29T08:03:35.110Z,62.16
2022-12-29T08:04:35.218Z,62.02
2022-12-29T08:05:35.417Z,62.02
2022-12-29T08:06:35.559Z,61.82
2022-12-29T08:07:35.724Z,61.82
2022-12-29T08:08:35.940Z,61.82
2022-12-29T08:09:36.085Z,61.82
2022-12-29T08:10:36.238Z,61.93
2022-12-29T08:11:36.428Z,61.82
2022-12-29T08:12:36.602Z,61.72
2022-12-29T08:13:36.787Z,61.72
2022-12-29T08:14:36.929Z,61.49
2022-12-29T08:15:37.205Z,61.39
2022-12-29T08:16:37.269Z,61.39
2022-12-29T08:17:37.435Z,61.08
2022-12-29T08:18:37.608Z,61.08
2022-12-29T08:19:37.787Z,61.08
2022-12-29T08:20:37.977Z,61.08
2022-12-29T08:21:38.170Z,60.98
2022-12-29T08:22:38.325Z,60.88
2022-12-29T08:23:38.488Z,60.98
2022-12-29T08:24:38.671Z,60.98
2022-12-29T08:25:38.868Z,61.08
2022-12-29T08:26:39.032Z,61.08
2022-12-29T08:27:39.191Z,60.98
2022-12-29T08:28:39.362Z,60.98
2022-12-29T08:29:39.520Z,61.08
2022-12-29T08:30:39.698Z,60.98
2022-12-29T08:31:39.919Z,60.88
2022-12-29T08:32:40.053Z,60.78
2022-12-29T08:33:40.232Z,60.98
2022-12-29T08:34:40.417Z,60.98
2022-12-29T08:35:40.600Z,60.88
2022-12-29T08:36:40.745Z,60.98
2022-12-29T08:37:40.925Z,61.08
2022-12-29T08:38:41.124Z,60.75
2022-12-29T08:39:41.247Z,60.55
2022-12-29T08:40:41.444Z,60.65
2022-12-29T08:41:41.611Z,60.65
2022-12-29T08:42:41.807Z,60.55
2022-12-29T08:43:41.964Z,60.35
2022-12-29T08:44:42.147Z,60.35
2022-12-29T08:45:42.328Z,60.55
2022-12-29T08:46:42.557Z,60.44
2022-12-29T08:47:42.724Z,60.44
2022-12-29T08:48:42.869Z,60.55
2022-12-29T08:49:43.041Z,60.44
2022-12-29T08:50:43.176Z,60.42
2022-12-29T08:51:43.369Z,60.11
2022-12-29T08:52:43.548Z,60.11
2022-12-29T08:53:43.738Z,59.81
2022-12-29T08:54:43.916Z,59.91
2022-12-29T08:55:44.115Z,59.70
2022-12-29T08:56:44.285Z,59.48
2022-12-29T08:57:44.465Z,59.38
2022-12-29T08:58:44.651Z,59.38
2022-12-29T08:59:44.832Z,59.48
2022-12-29T09:00:45.030Z,59.27
2022-12-29T09:01:45.332Z,59.17
2022-12-29T09:02:45.574Z,58.97
2022-12-29T09:04:13.350Z,59.17
2022-12-29T09:04:46.779Z,58.94
2022-12-29T09:05:45.906Z,58.84
2022-12-29T09:06:46.156Z,58.74
2022-12-29T09:07:46.278Z,58.74
2022-12-29T09:08:46.457Z,58.74
2022-12-29T09:09:46.638Z,58.54
2022-12-29T09:10:46.837Z,58.54
2022-12-29T09:11:46.997Z,58.34
2022-12-29T09:12:47.196Z,58.41
2022-12-29T09:13:47.361Z,57.87
2022-12-29T09:14:47.539Z,56.58
2022-12-29T09:15:47.753Z,54.89
2022-12-29T09:16:47.925Z,53.00
2022-12-29T09:17:48.071Z,51.01
2022-12-29T09:18:48.270Z,49.76
2022-12-29T09:19:48.422Z,48.40
2022-12-29T09:20:48.611Z,47.77
2022-12-29T09:21:48.766Z,47.05
2022-12-29T09:22:48.947Z,46.50
2022-12-29T09:23:49.158Z,45.86
2022-12-29T09:24:49.320Z,44.74
2022-12-29T09:25:49.583Z,44.42
2022-12-29T09:26:49.659Z,44.09
2022-12-29T09:27:49.824Z,43.70
2022-12-29T09:28:50.015Z,44.26
2022-12-29T09:29:50.159Z,45.50
2022-12-29T09:30:50.358Z,46.97
2022-12-29T09:31:50.584Z,48.35
2022-12-29T09:32:55.036Z,49.48
2022-12-29T09:33:50.902Z,50.13
2022-12-29T09:34:51.070Z,50.96
2022-12-29T09:35:51.207Z,51.36
2022-12-29T09:36:51.392Z,51.59
2022-12-29T09:37:51.558Z,51.99
2022-12-29T09:38:51.750Z,52.09
2022-12-29T09:39:54.473Z,52.22
2022-12-29T09:40:52.082Z,52.82
2022-12-29T09:41:52.242Z,52.51
2022-12-29T09:42:52.416Z,52.62
2022-12-29T09:43:52.631Z,52.94
2022-12-29T09:44:52.778Z,53.45
2022-12-29T09:45:52.957Z,53.55
2022-12-29T09:46:53.209Z,53.85
2022-12-29T09:47:53.320Z,53.75
2022-12-29T09:48:53.497Z,53.55
2022-12-29T09:49:53.639Z,53.75
2022-12-29T09:50:53.834Z,53.96
2022-12-29T09:51:54.007Z,54.05
2022-12-29T09:52:54.191Z,54.25
2022-12-29T09:53:54.359Z,53.75
2022-12-29T09:55:00.486Z,54.05
2022-12-29T09:55:55.710Z,53.85
2022-12-29T09:56:54.901Z,53.75
2022-12-29T09:57:55.070Z,54.05
2022-12-29T09:58:55.292Z,53.85
2022-12-29T09:59:55.418Z,54.05
2022-12-29T10:00:55.902Z,54.16
2022-12-29T10:01:55.950Z,54.36
2022-12-29T10:02:55.995Z,54.25
2022-12-29T10:03:56.144Z,54.48
2022-12-29T10:04:56.300Z,54.28
2022-12-29T10:05:56.462Z,54.38
2022-12-29T10:07:27.929Z,54.68
2022-12-29T10:07:57.780Z,54.68
2022-12-29T10:08:56.992Z,54.79
2022-12-29T10:09:57.154Z,54.89
2022-12-29T10:10:57.374Z,54.89
2022-12-29T10:11:57.510Z,55.19
2022-12-29T10:12:57.677Z,54.79
2022-12-29T10:13:57.862Z,54.81
2022-12-29T10:14:58.038Z,55.11
2022-12-29T10:15:58.276Z,55.11
2022-12-29T10:16:58.392Z,55.21
2022-12-29T10:17:58.573Z,55.41
2022-12-29T10:18:58.800Z,55.39
2022-12-29T10:19:58.962Z,54.99
2022-12-29T10:20:59.146Z,54.68
2022-12-29T10:21:59.288Z,54.89
2022-12-29T10:22:59.473Z,54.79
2022-12-29T10:23:59.670Z,54.66
2022-12-29T10:24:59.861Z,54.66
2022-12-29T10:26:00.033Z,54.56
2022-12-29T10:27:00.220Z,54.46
2022-12-29T10:28:00.395Z,54.66
2022-12-29T10:29:00.581Z,54.48
2022-12-29T10:30:00.773Z,54.68
2022-12-29T10:31:06.739Z,54.89
2022-12-29T10:32:02.153Z,54.48
2022-12-29T10:33:01.296Z,54.79
2022-12-29T10:34:01.457Z,54.79
2022-12-29T10:35:01.653Z,54.89
2022-12-29T10:36:01.811Z,54.79
2022-12-29T10:37:01.972Z,54.48
2022-12-29T10:38:02.141Z,54.58
2022-12-29T10:39:02.324Z,54.89
2022-12-29T10:40:02.519Z,54.99
2022-12-29T10:41:02.703Z,54.99
2022-12-29T10:42:02.851Z,55.09
2022-12-29T10:43:03.037Z,55.29
2022-12-29T10:44:03.220Z,55.09
2022-12-29T10:45:03.396Z,54.89
2022-12-29T10:46:03.644Z,55.01
2022-12-29T10:47:03.772Z,55.32
2022-12-29T10:48:03.944Z,55.41
2022-12-29T10:49:04.154Z,55.41
2022-12-29T10:50:04.303Z,55.41
2022-12-29T10:51:04.510Z,55.62
2022-12-29T10:52:04.681Z,55.62
2022-12-29T10:53:04.867Z,55.52
2022-12-29T10:54:05.045Z,55.52
2022-12-29T10:55:05.235Z,55.52
2022-12-29T10:56:05.423Z,55.62
2022-12-29T10:57:05.572Z,55.52
2022-12-29T10:58:05.736Z,55.21
2022-12-29T10:59:05.901Z,55.41
2022-12-29T11:00:06.102Z,55.62
2022-12-29T11:01:06.340Z,55.72
2022-12-29T11:02:06.586Z,55.62
2022-12-29T11:03:06.757Z,55.62
2022-12-29T11:04:06.786Z,55.92
2022-12-29T11:05:06.962Z,55.92
2022-12-29T11:06:07.177Z,56.32
2022-12-29T11:07:10.666Z,56.43
2022-12-29T11:08:08.463Z,56.43
2022-12-29T11:09:07.657Z,56.73
2022-12-29T11:10:07.833Z,57.03
2022-12-29T11:11:08.027Z,56.73
2022-12-29T11:12:08.204Z,56.73
2022-12-29T11:13:08.371Z,56.96
2022-12-29T11:14:08.551Z,57.16
2022-12-29T11:15:08.757Z,57.26
2022-12-29T11:16:08.929Z,57.26
2022-12-29T11:17:09.081Z,57.46
2022-12-29T11:18:09.250Z,57.56
2022-12-29T11:19:09.435Z,57.76
2022-12-29T11:20:09.624Z,58.09
2022-12-29T11:21:09.773Z,58.50
2022-12-29T11:22:09.953Z,59.11
2022-12-29T11:23:10.144Z,59.31
2022-12-29T11:24:10.328Z,59.51
2022-12-29T11:25:10.577Z,59.61
2022-12-29T11:26:10.696Z,59.71
2022-12-29T11:27:10.881Z,59.81
2022-12-29T11:28:11.062Z,59.71
2022-12-29T11:29:11.243Z,59.64
2022-12-29T11:30:11.452Z,59.94
2022-12-29T11:31:11.621Z,60.05
2022-12-29T11:32:11.832Z,60.14
2022-12-29T11:33:11.963Z,60.45
2022-12-29T11:34:12.144Z,60.75
2022-12-29T11:35:12.343Z,60.45
2022-12-29T11:36:12.517Z,60.78
2022-12-29T11:37:12.704Z,60.68
2022-12-29T11:38:12.854Z,60.78
2022-12-29T11:39:14.253Z,60.68
2022-12-29T11:40:13.204Z,60.98
2022-12-29T11:41:13.362Z,60.88
2022-12-29T11:42:13.523Z,61.01
2022-12-29T11:43:13.709Z,61.11
2022-12-29T11:44:13.868Z,61.41
2022-12-29T11:45:14.044Z,61.72
2022-12-29T11:46:14.269Z,62.43
2022-12-29T11:47:14.353Z,62.73
2022-12-29T11:48:14.533Z,63.17
2022-12-29T11:49:14.817Z,63.37
2022-12-29T11:50:14.939Z,63.98
2022-12-29T11:51:16.079Z,64.18
2022-12-29T11:52:15.289Z,64.72
2022-12-29T11:53:15.475Z,65.22
2022-12-29T11:54:15.659Z,65.42
2022-12-29T11:55:15.881Z,65.83
2022-12-29T11:56:16.037Z,66.13
2022-12-29T11:57:16.192Z,66.27
2022-12-29T11:58:16.391Z,66.67
2022-12-29T11:59:16.552Z,66.77
2022-12-29T12:00:16.742Z,66.97
2022-12-29T12:01:16.921Z,67.21
2022-12-29T12:02:17.288Z,67.51
2022-12-29T12:03:17.426Z,67.41
2022-12-29T12:04:17.559Z,67.51
2022-12-29T12:05:17.655Z,67.61
2022-12-29T12:06:17.816Z,67.61
2022-12-29T12:07:17.999Z,67.51
2022-12-29T12:08:20.975Z,67.85
2022-12-29T12:09:18.349Z,67.85
2022-12-29T12:10:18.534Z,68.05
2022-12-29T12:11:18.686Z,67.95
2022-12-29T12:12:18.844Z,68.05
2022-12-29T12:13:19.013Z,68.15
2022-12-29T12:14:19.195Z,68.15
2022-12-29T12:15:19.400Z,68.05
2022-12-29T12:16:19.655Z,67.75
2022-12-29T12:17:19.775Z,67.75
2022-12-29T12:18:19.924Z,67.95
2022-12-29T12:19:20.125Z,67.34
2022-12-29T12:20:20.347Z,67.34
2022-12-29T12:21:20.475Z,67.34
2022-12-29T12:22:20.626Z,67.14
2022-12-29T12:23:20.825Z,66.94
2022-12-29T12:24:20.963Z,66.74
2022-12-29T12:25:21.144Z,66.70
2022-12-29T12:26:21.324Z,66.80
2022-12-29T12:27:21.513Z,66.60
2022-12-29T12:28:21.711Z,66.60
2022-12-29T12:29:21.883Z,66.80
2022-12-29T12:30:22.041Z,66.30
2022-12-29T12:31:22.298Z,66.40
2022-12-29T12:32:22.387Z,66.40
2022-12-29T12:33:22.591Z,66.40
2022-12-29T12:34:22.755Z,66.19
2022-12-29T12:35:22.958Z,66.19
2022-12-29T12:36:23.097Z,66.30
2022-12-29T12:37:23.286Z,66.19
2022-12-29T12:38:23.466Z,66.40
2022-12-29T12:39:23.626Z,65.99
2022-12-29T12:40:23.794Z,66.09
2022-12-29T12:41:23.976Z,65.99
2022-12-29T12:42:24.135Z,66.09
2022-12-29T12:43:24.331Z,65.89
2022-12-29T12:44:24.500Z,65.89
2022-12-29T12:45:24.693Z,65.89
2022-12-29T12:46:24.939Z,65.79
2022-12-29T12:47:25.085Z,65.89
2022-12-29T12:48:25.223Z,65.99
2022-12-29T12:49:25.414Z,65.89
2022-12-29T12:50:25.598Z,65.99
2022-12-29T12:51:25.736Z,65.99
2022-12-29T12:52:25.923Z,65.99
2022-12-29T12:53:26.086Z,65.79
2022-12-29T12:54:26.225Z,65.89